14Y

Todd Field Airport

Long Prairie, Minnesota, USA
METAR K14Y 251855Z AUTO 31007KT 10SM SCT021 BKN032 OVC044 10/06 A2998 RMK AO2
Observed Flight Rules
Sep-25 @ 18:55 UTC (7 minutes ago) Visual Flight Rules
Wind Visibility Clouds
310° at 7 knots 10 miles
  • Scattered at 2,100' AGL
  • Broken at 3,200' AGL
  • Overcast at 4,400' AGL
Temperatures Readings
Current 10°C / 50°F
Dewpoint 6°C / 43°F
Humidity 76%
Altimeter 29.98" Hg
Pressure 1015 hPa
Elevation 406
METAR K14Y 251855Z AUTO 31007KT 10SM SCT021 BKN032 OVC044 10/06 A2998 RMK AO2
Observed Flight Rules
Sep-25 @ 18:55 UTC
(7 minutes ago)
VFR
Wind Visibility
310° at 7 knots 10 miles
Clouds
  • Scattered at 2,100' AGL
  • Broken at 3,200' AGL
  • Overcast at 4,400' AGL
Temperature Dewpoint
10°C / 50°F 6°C / 43°F
Humidity Altimeter Pressure
76% 29.98" Hg 1015 hPa